createdAt,value
2022-10-23T00:00:57.561Z,10.71
2022-10-23T00:01:58.989Z,10.72
2022-10-23T00:03:00.732Z,10.74
2022-10-23T00:04:04.560Z,10.76
2022-10-23T00:05:06.182Z,10.79
2022-10-23T00:06:07.798Z,10.76
2022-10-23T00:07:09.168Z,10.74
2022-10-23T00:08:10.569Z,10.73
2022-10-23T00:09:13.256Z,10.75
2022-10-23T00:10:14.684Z,10.72
2022-10-23T00:11:18.095Z,10.74
2022-10-23T00:12:19.518Z,10.77
2022-10-23T00:13:20.943Z,10.79
2022-10-23T00:14:23.462Z,10.79
2022-10-23T00:15:24.852Z,10.76
2022-10-23T00:16:26.947Z,10.73
2022-10-23T00:17:28.341Z,10.70
2022-10-23T00:18:29.739Z,10.69
2022-10-23T00:19:31.123Z,10.70
2022-10-23T00:20:32.514Z,10.73
2022-10-23T00:21:33.899Z,10.74
2022-10-23T00:22:35.398Z,10.65
2022-10-23T00:23:37.172Z,10.57
2022-10-23T00:24:38.616Z,10.56
2022-10-23T00:25:39.997Z,10.53
2022-10-23T00:26:41.407Z,10.57
2022-10-23T00:27:43.165Z,10.56
2022-10-23T00:28:49.157Z,10.54
2022-10-23T00:29:50.550Z,10.51
2022-10-23T00:30:51.984Z,10.47
2022-10-23T00:31:53.416Z,10.44
2022-10-23T00:32:55.121Z,10.40
2022-10-23T00:33:56.522Z,10.36
2022-10-23T00:34:57.927Z,10.39
2022-10-23T00:35:59.536Z,10.38
2022-10-23T00:37:00.988Z,10.43
2022-10-23T00:38:02.549Z,10.49
2022-10-23T00:39:04.800Z,10.52
2022-10-23T00:40:06.568Z,10.47
2022-10-23T00:41:08.933Z,10.44
2022-10-23T00:42:13.996Z,10.39
2022-10-23T00:43:22.645Z,10.31
2022-10-23T00:44:24.006Z,10.29
2022-10-23T00:45:26.699Z,10.35
2022-10-23T00:46:28.493Z,10.35
2022-10-23T00:47:29.960Z,10.38
2022-10-23T00:48:31.375Z,10.39
2022-10-23T00:49:34.446Z,10.37
2022-10-23T00:50:36.112Z,10.34
2022-10-23T00:51:48.918Z,10.29
2022-10-23T00:52:51.536Z,10.27
2022-10-23T00:54:01.217Z,10.26
2022-10-23T00:55:15.283Z,10.24
2022-10-23T00:56:16.813Z,10.24
2022-10-23T00:57:18.359Z,10.28
2022-10-23T00:58:20.722Z,10.31
2022-10-23T00:59:22.602Z,10.30
2022-10-23T01:00:25.684Z,10.27
2022-10-23T01:01:27.300Z,10.20
2022-10-23T01:02:29.205Z,10.13
2022-10-23T01:03:30.698Z,10.04
2022-10-23T01:04:32.636Z,10.10
2022-10-23T01:05:41.281Z,10.17
2022-10-23T01:06:42.715Z,10.18
2022-10-23T01:07:46.914Z,10.21
2022-10-23T01:08:52.201Z,10.25
2022-10-23T01:10:13.881Z,10.19
2022-10-23T01:11:20.418Z,10.04
2022-10-23T01:12:37.808Z,9.99
2022-10-23T01:13:54.475Z,10.01
2022-10-23T01:15:06.158Z,10.05
2022-10-23T01:16:07.628Z,10.07
2022-10-23T01:17:20.873Z,10.07
2022-10-23T01:18:27.429Z,10.08
2022-10-23T01:19:37.782Z,10.09
2022-10-23T01:20:44.455Z,10.07
2022-10-23T01:21:59.398Z,10.09
2022-10-23T01:23:12.502Z,10.12
2022-10-23T01:24:22.721Z,10.06
2022-10-23T01:25:32.803Z,10.03
2022-10-23T01:26:34.203Z,10.01
2022-10-23T01:27:42.384Z,9.97
2022-10-23T01:28:49.556Z,9.97
2022-10-23T01:30:09.224Z,9.98
2022-10-23T01:31:27.972Z,9.88
2022-10-23T01:32:48.844Z,9.77
2022-10-23T01:33:59.539Z,9.68
2022-10-23T01:35:08.908Z,9.73
2022-10-23T01:36:15.048Z,9.77
2022-10-23T01:37:23.140Z,9.78
2022-10-23T01:38:24.584Z,9.73
2022-10-23T01:39:32.783Z,9.66
2022-10-23T01:40:37.299Z,9.56
2022-10-23T01:41:55.825Z,9.58
2022-10-23T01:43:10.677Z,9.60
2022-10-23T01:44:16.060Z,9.56
2022-10-23T01:45:40.311Z,9.55
2022-10-23T01:46:44.503Z,9.56
2022-10-23T01:47:47.679Z,9.44
2022-10-23T01:48:54.532Z,9.32
2022-10-23T01:49:56.722Z,9.12
2022-10-23T01:51:00.445Z,9.16
2022-10-23T01:52:02.695Z,9.15
2022-10-23T01:53:04.824Z,9.09
2022-10-23T01:54:09.050Z,9.13
2022-10-23T01:55:12.034Z,9.15
2022-10-23T01:56:18.223Z,9.16
2022-10-23T01:57:20.910Z,9.16
2022-10-23T01:58:22.801Z,9.02
2022-10-23T01:59:32.104Z,8.97
2022-10-23T02:00:34.381Z,8.90
2022-10-23T02:01:37.380Z,8.88
2022-10-23T02:02:41.018Z,8.92
2022-10-23T02:03:44.327Z,8.94
2022-10-23T02:05:04.580Z,8.97
2022-10-23T02:06:06.187Z,9.03
2022-10-23T02:07:07.831Z,9.07
2022-10-23T02:08:10.031Z,9.11
2022-10-23T02:09:11.554Z,9.17
2022-10-23T02:10:14.140Z,9.19
2022-10-23T02:11:17.311Z,9.20
2022-10-23T02:12:24.798Z,9.21
2022-10-23T02:13:33.615Z,9.24
2022-10-23T02:14:35.776Z,9.27
2022-10-23T02:16:00.239Z,9.32
2022-10-23T02:17:21.930Z,9.28
2022-10-23T02:18:35.683Z,9.17
2022-10-23T02:19:56.012Z,9.02
2022-10-23T02:21:09.773Z,8.94
2022-10-23T02:22:31.410Z,8.96
2022-10-23T02:23:35.516Z,9.03
2022-10-23T02:24:45.443Z,9.06
2022-10-23T02:26:16.037Z,9.11
2022-10-23T02:27:41.392Z,9.18
2022-10-23T02:28:45.867Z,9.20
2022-10-23T02:29:53.174Z,9.21
2022-10-23T02:30:57.370Z,9.19
2022-10-23T02:31:59.112Z,9.18
2022-10-23T02:33:01.306Z,9.15
2022-10-23T02:34:02.779Z,9.04
2022-10-23T02:35:04.552Z,8.95
2022-10-23T02:36:06.118Z,8.89
2022-10-23T02:37:07.705Z,8.80
2022-10-23T02:38:28.387Z,8.67
2022-10-23T02:39:29.882Z,8.57
2022-10-23T02:40:49.323Z,8.60
2022-10-23T02:42:09.554Z,8.67
2022-10-23T02:43:21.659Z,8.79
2022-10-23T02:44:23.252Z,8.84
2022-10-23T02:45:44.915Z,8.82
2022-10-23T02:46:52.434Z,8.75
2022-10-23T02:48:04.857Z,8.77
2022-10-23T02:49:15.336Z,8.76
2022-10-23T02:50:29.492Z,8.69
2022-10-23T02:51:40.547Z,8.57
2022-10-23T02:52:56.834Z,8.56
2022-10-23T02:54:21.498Z,8.63
2022-10-23T02:55:29.098Z,8.52
2022-10-23T02:56:42.349Z,8.34
2022-10-23T02:57:50.749Z,8.22
2022-10-23T02:59:10.741Z,8.14
2022-10-23T03:00:15.270Z,8.22
2022-10-23T03:01:21.180Z,8.26
2022-10-23T03:02:25.954Z,8.30
2022-10-23T03:03:29.833Z,8.33
2022-10-23T03:04:31.945Z,8.31
2022-10-23T03:05:36.100Z,8.25
2022-10-23T03:06:37.541Z,8.23
2022-10-23T03:07:39.777Z,8.26
2022-10-23T03:08:48.691Z,8.32
2022-10-23T03:09:50.092Z,8.40
2022-10-23T03:10:51.512Z,8.41
2022-10-23T03:11:54.936Z,8.48
2022-10-23T03:12:56.572Z,8.39
2022-10-23T03:13:58.354Z,8.38
2022-10-23T03:14:59.845Z,8.44
2022-10-23T03:16:01.262Z,8.49
2022-10-23T03:17:02.908Z,8.51
2022-10-23T03:18:04.481Z,8.49
2022-10-23T03:19:05.962Z,8.41
2022-10-23T03:20:08.189Z,8.44
2022-10-23T03:21:10.383Z,8.48
2022-10-23T03:22:11.782Z,8.45
2022-10-23T03:23:13.603Z,8.29
2022-10-23T03:24:15.015Z,8.16
2022-10-23T03:25:18.250Z,8.08
2022-10-23T03:26:20.355Z,8.01
2022-10-23T03:27:22.934Z,8.01
2022-10-23T03:28:24.383Z,8.00
2022-10-23T03:29:25.799Z,7.97
2022-10-23T03:30:27.196Z,7.99
2022-10-23T03:31:29.575Z,7.98
2022-10-23T03:32:33.579Z,8.05
2022-10-23T03:33:35.017Z,8.14
2022-10-23T03:34:45.044Z,8.24
2022-10-23T03:36:54.223Z,8.35
2022-10-23T03:37:55.746Z,8.37
2022-10-23T03:38:59.107Z,8.44
2022-10-23T03:40:00.864Z,8.52
2022-10-23T03:41:05.147Z,8.56
2022-10-23T03:42:06.920Z,8.60
2022-10-23T03:43:08.423Z,8.57
2022-10-23T03:44:12.509Z,8.58
2022-10-23T03:45:19.006Z,8.60
2022-10-23T03:46:22.415Z,8.65
2022-10-23T03:47:27.892Z,8.68
2022-10-23T03:48:29.272Z,8.75
2022-10-23T03:49:33.237Z,8.82
2022-10-23T03:50:39.241Z,8.85
2022-10-23T03:51:40.650Z,8.82
2022-10-23T03:52:42.362Z,8.81
2022-10-23T03:53:46.505Z,8.84
2022-10-23T03:54:47.912Z,8.86
2022-10-23T03:55:51.043Z,8.85
2022-10-23T03:56:56.506Z,8.84
2022-10-23T03:57:59.057Z,8.90
2022-10-23T03:59:00.510Z,8.96
2022-10-23T04:00:02.061Z,8.97
2022-10-23T04:01:07.256Z,9.02
2022-10-23T04:02:10.332Z,9.02
2022-10-23T04:03:11.773Z,9.02
2022-10-23T04:04:13.227Z,9.05
2022-10-23T04:05:17.647Z,9.05
2022-10-23T04:06:27.780Z,9.10
2022-10-23T04:07:31.574Z,9.13
2022-10-23T04:08:35.951Z,9.12
2022-10-23T04:09:42.295Z,9.05
2022-10-23T04:10:49.618Z,9.06
2022-10-23T04:11:55.506Z,8.98
2022-10-23T04:13:00.250Z,9.03
2022-10-23T04:14:02.174Z,9.06
2022-10-23T04:15:03.809Z,9.04
2022-10-23T04:16:05.278Z,9.09
2022-10-23T04:17:06.687Z,9.12
2022-10-23T04:18:08.876Z,9.09
2022-10-23T04:19:10.310Z,9.07
2022-10-23T04:20:11.717Z,9.12
2022-10-23T04:21:13.140Z,9.08
2022-10-23T04:22:14.580Z,8.99
2022-10-23T04:23:16.190Z,8.99
2022-10-23T04:24:18.672Z,9.03
2022-10-23T04:25:20.115Z,9.07
2022-10-23T04:26:21.544Z,9.09
2022-10-23T04:27:23.085Z,9.12
2022-10-23T04:28:24.659Z,9.14
2022-10-23T04:29:26.172Z,9.18
2022-10-23T04:30:27.708Z,9.23
2022-10-23T04:31:29.910Z,9.22
2022-10-23T04:32:31.351Z,9.25
2022-10-23T04:33:32.823Z,9.25
2022-10-23T04:34:34.267Z,9.23
2022-10-23T04:35:36.701Z,9.24
2022-10-23T04:36:38.183Z,9.26
2022-10-23T04:37:44.321Z,9.28
2022-10-23T04:38:45.989Z,9.26
2022-10-23T04:39:47.416Z,9.24
2022-10-23T04:40:49.015Z,9.22
2022-10-23T04:41:54.874Z,9.22
2022-10-23T04:42:59.620Z,9.20
2022-10-23T04:44:01.131Z,9.20
2022-10-23T04:45:02.808Z,9.19
2022-10-23T04:46:04.428Z,9.19
2022-10-23T04:47:05.848Z,9.18
2022-10-23T04:48:11.624Z,9.17
2022-10-23T04:49:31.227Z,9.18
2022-10-23T04:51:00.111Z,9.20
2022-10-23T04:52:21.500Z,9.21
2022-10-23T04:53:56.142Z,9.24
2022-10-23T04:55:20.509Z,9.26
2022-10-23T04:56:43.390Z,9.28
2022-10-23T04:57:50.165Z,9.19
2022-10-23T04:58:55.967Z,9.03
2022-10-23T04:59:58.600Z,8.97
2022-10-23T05:01:00.096Z,8.96
2022-10-23T05:02:01.615Z,8.97
2022-10-23T05:03:03.492Z,8.98
2022-10-23T05:04:10.615Z,8.98
2022-10-23T05:05:30.562Z,8.90
2022-10-23T05:06:56.261Z,8.91
2022-10-23T05:08:15.679Z,8.96
2022-10-23T05:09:37.968Z,9.00
2022-10-23T05:10:51.396Z,9.04
2022-10-23T05:11:52.815Z,9.06
2022-10-23T05:12:54.306Z,9.07
2022-10-23T05:13:55.724Z,9.10
2022-10-23T05:14:57.434Z,9.04
2022-10-23T05:15:59.457Z,9.09
2022-10-23T05:17:02.715Z,9.10
2022-10-23T05:18:16.361Z,9.09
2022-10-23T05:19:23.463Z,8.99
2022-10-23T05:20:28.547Z,8.97
2022-10-23T05:21:31.853Z,8.93
2022-10-23T05:22:36.225Z,8.87
2022-10-23T05:23:42.046Z,8.81
2022-10-23T05:24:46.951Z,8.79
2022-10-23T05:25:53.844Z,8.81
2022-10-23T05:26:56.460Z,8.82
2022-10-23T05:27:58.060Z,8.90
2022-10-23T05:29:00.453Z,8.91
2022-10-23T05:30:02.444Z,8.96
2022-10-23T05:31:08.134Z,8.99
2022-10-23T05:32:14.391Z,9.05
2022-10-23T05:33:16.718Z,9.12
2022-10-23T05:34:20.525Z,9.19
2022-10-23T05:35:23.201Z,9.18
2022-10-23T05:36:25.808Z,9.20
2022-10-23T05:37:31.300Z,9.23
2022-10-23T05:38:46.724Z,9.30
2022-10-23T05:39:51.625Z,9.33
2022-10-23T05:40:53.323Z,9.38
2022-10-23T05:41:56.791Z,9.44
2022-10-23T05:42:59.622Z,9.48
2022-10-23T05:44:11.695Z,9.49
2022-10-23T05:45:31.721Z,9.58
2022-10-23T05:46:55.667Z,9.65
2022-10-23T05:48:29.733Z,9.69
2022-10-23T05:49:37.972Z,9.73
2022-10-23T05:51:11.783Z,9.85
2022-10-23T05:52:27.369Z,9.97
2022-10-23T05:53:48.112Z,10.07
2022-10-23T05:55:07.198Z,10.19
2022-10-23T05:56:31.539Z,10.27
2022-10-23T05:57:40.600Z,10.32
2022-10-23T05:58:45.678Z,10.38
2022-10-23T06:00:19.289Z,10.42
2022-10-23T06:01:28.377Z,10.50
2022-10-23T06:02:34.823Z,10.61
2022-10-23T06:03:45.594Z,10.67
2022-10-23T06:04:47.509Z,10.70
2022-10-23T06:06:07.533Z,10.71
2022-10-23T06:07:16.968Z,10.69
2022-10-23T06:08:20.476Z,10.70
2022-10-23T06:09:24.306Z,10.71
2022-10-23T06:10:31.484Z,10.75
2022-10-23T06:11:35.496Z,10.76
2022-10-23T06:12:42.792Z,10.78
2022-10-23T06:13:48.440Z,10.76
2022-10-23T06:14:51.850Z,10.76
2022-10-23T06:15:53.644Z,10.76
2022-10-23T06:16:58.838Z,10.69
2022-10-23T06:18:01.097Z,10.70
2022-10-23T06:19:03.564Z,10.66
2022-10-23T06:20:05.296Z,10.62
2022-10-23T06:21:11.521Z,10.61
2022-10-23T06:22:13.208Z,10.54
2022-10-23T06:23:24.941Z,10.52
2022-10-23T06:24:46.586Z,10.64
2022-10-23T06:25:53.304Z,10.81
2022-10-23T06:26:58.115Z,10.95
2022-10-23T06:28:10.919Z,11.22
2022-10-23T06:29:12.323Z,11.44
2022-10-23T06:30:15.882Z,11.68
2022-10-23T06:31:17.777Z,11.87
2022-10-23T06:32:19.219Z,12.06
2022-10-23T06:33:33.121Z,12.28
2022-10-23T06:34:38.026Z,12.52
2022-10-23T06:35:42.231Z,12.67
2022-10-23T06:36:46.230Z,12.77
2022-10-23T06:38:06.264Z,12.99
2022-10-23T06:39:13.777Z,13.15
2022-10-23T06:40:27.819Z,13.29
2022-10-23T06:41:35.967Z,13.54
2022-10-23T06:42:37.385Z,13.72
2022-10-23T06:44:01.988Z,13.82
2022-10-23T06:45:23.657Z,13.96
2022-10-23T06:46:25.267Z,14.08
2022-10-23T06:47:45.141Z,14.23
2022-10-23T06:49:16.186Z,14.20
2022-10-23T06:50:22.709Z,14.22
2022-10-23T06:51:24.167Z,14.26
2022-10-23T06:52:45.777Z,14.31
2022-10-23T06:53:49.946Z,14.29
2022-10-23T06:55:10.130Z,14.24
2022-10-23T06:56:12.866Z,14.30
2022-10-23T06:57:14.323Z,14.34
2022-10-23T06:58:19.829Z,14.30
2022-10-23T06:59:37.723Z,14.22
2022-10-23T07:00:40.698Z,14.15
2022-10-23T07:01:42.308Z,14.10
2022-10-23T07:02:45.502Z,14.05
2022-10-23T07:03:48.809Z,14.11
2022-10-23T07:04:54.109Z,14.11
2022-10-23T07:05:56.347Z,14.18
2022-10-23T07:06:57.755Z,14.11
2022-10-23T07:08:05.000Z,14.13
2022-10-23T07:09:13.103Z,14.23
2022-10-23T07:10:27.016Z,14.28
2022-10-23T07:11:32.751Z,14.47
2022-10-23T07:12:34.160Z,14.50
2022-10-23T07:14:01.332Z,14.31
2022-10-23T07:15:03.495Z,14.19
2022-10-23T07:16:12.303Z,14.09
2022-10-23T07:17:13.764Z,14.00
2022-10-23T07:18:15.270Z,14.01
2022-10-23T07:19:39.726Z,14.25
2022-10-23T07:20:46.303Z,14.51
2022-10-23T07:21:47.768Z,14.70
2022-10-23T07:22:57.297Z,14.94
2022-10-23T07:24:05.274Z,15.13
2022-10-23T07:25:09.449Z,15.33
2022-10-23T07:26:14.509Z,15.64
2022-10-23T07:27:16.383Z,15.92
2022-10-23T07:28:18.843Z,16.18
2022-10-23T07:29:20.614Z,16.30
2022-10-23T07:30:23.135Z,16.51
2022-10-23T07:31:28.430Z,16.57
2022-10-23T07:32:48.351Z,16.62
2022-10-23T07:34:09.350Z,16.76
2022-10-23T07:35:12.287Z,16.98
2022-10-23T07:36:17.981Z,17.21
2022-10-23T07:37:19.476Z,17.43
2022-10-23T07:38:21.006Z,17.50
2022-10-23T07:39:27.484Z,17.59
2022-10-23T07:40:29.109Z,17.61
2022-10-23T07:41:31.596Z,17.50
2022-10-23T07:42:33.311Z,17.39
2022-10-23T07:43:34.810Z,17.44
2022-10-23T07:44:36.264Z,17.16
2022-10-23T07:45:37.983Z,16.78
2022-10-23T07:46:48.529Z,16.33
2022-10-23T07:47:50.474Z,16.09
2022-10-23T07:48:52.613Z,15.76
2022-10-23T07:49:54.489Z,15.40
2022-10-23T07:51:00.237Z,15.06
2022-10-23T07:53:27.410Z,14.39
2022-10-23T07:54:33.397Z,14.29
2022-10-23T07:55:59.783Z,14.21
2022-10-23T07:57:11.700Z,14.22
2022-10-23T07:58:23.942Z,14.04
2022-10-23T07:59:39.613Z,13.97
2022-10-23T08:00:44.600Z,13.89
2022-10-23T08:01:55.807Z,13.83
2022-10-23T08:03:02.204Z,13.77
2022-10-23T08:04:04.292Z,13.72
2022-10-23T08:05:06.228Z,13.64
2022-10-23T08:06:13.536Z,13.54
2022-10-23T08:07:15.184Z,13.54
2022-10-23T08:08:19.520Z,13.55
2022-10-23T08:09:23.192Z,13.46
2022-10-23T08:10:24.774Z,13.41
2022-10-23T08:11:26.844Z,13.40
2022-10-23T08:12:28.501Z,13.26
2022-10-23T08:13:30.425Z,13.13
2022-10-23T08:14:40.604Z,13.11
2022-10-23T08:15:42.706Z,13.16
2022-10-23T08:16:58.443Z,13.19
2022-10-23T08:18:19.176Z,13.21
2022-10-23T08:19:20.636Z,13.32
2022-10-23T08:20:25.535Z,13.37
2022-10-23T08:21:27.340Z,13.40
2022-10-23T08:22:29.140Z,13.49
2022-10-23T08:23:30.856Z,13.56
2022-10-23T08:24:33.039Z,13.59
2022-10-23T08:25:34.845Z,13.59
2022-10-23T08:26:36.329Z,13.58
2022-10-23T08:27:38.210Z,13.52
2022-10-23T08:28:40.146Z,13.55
2022-10-23T08:29:41.680Z,13.52
2022-10-23T08:30:43.335Z,13.55
2022-10-23T08:31:45.875Z,13.60
2022-10-23T08:33:07.564Z,13.58
2022-10-23T08:34:09.192Z,13.59
2022-10-23T08:35:10.884Z,13.61
2022-10-23T08:36:26.184Z,13.60
2022-10-23T08:37:27.629Z,13.65
2022-10-23T08:38:29.179Z,13.69
2022-10-23T08:39:32.768Z,13.70
2022-10-23T08:40:49.271Z,13.66
2022-10-23T08:42:00.027Z,13.60
2022-10-23T08:43:05.245Z,13.62
2022-10-23T08:44:18.262Z,13.70
2022-10-23T08:45:31.076Z,13.71
2022-10-23T08:47:08.692Z,13.69
2022-10-23T08:48:23.645Z,13.66
2022-10-23T08:49:53.890Z,13.63
2022-10-23T08:50:57.444Z,13.57
2022-10-23T08:52:01.624Z,13.62
2022-10-23T08:53:03.074Z,13.65
2022-10-23T08:54:08.011Z,13.63
2022-10-23T08:55:24.578Z,13.54
2022-10-23T08:56:27.563Z,13.58
2022-10-23T08:57:32.393Z,13.55
2022-10-23T08:58:33.841Z,13.54
2022-10-23T08:59:38.344Z,13.55
2022-10-23T09:00:39.859Z,13.52
2022-10-23T09:01:49.410Z,13.55
2022-10-23T09:02:52.208Z,13.52
2022-10-23T09:03:53.825Z,13.49
2022-10-23T09:04:57.240Z,13.45
2022-10-23T09:06:07.918Z,13.48
2022-10-23T09:07:28.406Z,13.48
2022-10-23T09:08:29.844Z,13.52
2022-10-23T09:09:40.610Z,13.56
2022-10-23T09:10:47.034Z,13.51
2022-10-23T09:12:00.084Z,13.53
2022-10-23T09:13:10.966Z,13.51
2022-10-23T09:14:24.818Z,13.52
2022-10-23T09:15:40.406Z,13.56
2022-10-23T09:17:05.251Z,13.61
2022-10-23T09:18:12.738Z,13.62
2022-10-23T09:19:18.231Z,13.68
2022-10-23T09:20:24.825Z,13.73
2022-10-23T09:21:30.089Z,13.74
2022-10-23T09:22:31.823Z,13.84
2022-10-23T09:23:33.290Z,13.93
2022-10-23T09:24:34.942Z,13.98
2022-10-23T09:25:40.340Z,14.02
2022-10-23T09:26:41.789Z,14.03
2022-10-23T09:27:53.201Z,14.05
2022-10-23T09:29:02.972Z,14.05
2022-10-23T09:30:04.776Z,14.16
2022-10-23T09:31:10.318Z,14.29
2022-10-23T09:32:11.888Z,14.34
2022-10-23T09:33:13.345Z,14.40
2022-10-23T09:34:19.270Z,14.57
2022-10-23T09:35:22.088Z,14.69
2022-10-23T09:36:23.648Z,14.79
2022-10-23T09:37:29.252Z,14.83
2022-10-23T09:38:30.681Z,14.76
2022-10-23T09:39:33.295Z,14.69
2022-10-23T09:40:41.662Z,14.73
2022-10-23T09:41:43.196Z,14.81
2022-10-23T09:42:55.594Z,14.90
2022-10-23T09:44:00.954Z,14.97
2022-10-23T09:45:02.489Z,14.99
2022-10-23T09:46:06.004Z,15.01
2022-10-23T09:47:10.086Z,15.06
2022-10-23T09:48:13.376Z,15.21
2022-10-23T09:49:19.088Z,15.30
2022-10-23T09:50:20.995Z,15.48
2022-10-23T09:51:22.752Z,15.45
2022-10-23T09:52:37.321Z,15.50
2022-10-23T09:53:40.177Z,15.52
2022-10-23T09:54:45.624Z,15.54
2022-10-23T09:55:51.302Z,15.60
2022-10-23T09:56:53.675Z,15.66
2022-10-23T09:57:55.336Z,15.62
2022-10-23T09:58:58.364Z,15.59
2022-10-23T10:00:01.747Z,15.62
2022-10-23T10:01:23.243Z,15.74
2022-10-23T10:02:29.181Z,15.81
2022-10-23T10:03:50.388Z,15.93
2022-10-23T10:04:54.467Z,15.95
2022-10-23T10:06:03.490Z,15.90
2022-10-23T10:07:07.067Z,15.99
2022-10-23T10:08:20.631Z,16.05
2022-10-23T10:09:22.098Z,16.17
2022-10-23T10:10:23.906Z,16.18
2022-10-23T10:11:35.370Z,16.22
2022-10-23T10:12:59.329Z,16.24
2022-10-23T10:14:06.119Z,16.28
2022-10-23T10:15:33.732Z,16.39
2022-10-23T10:16:38.094Z,16.36
2022-10-23T10:17:44.274Z,16.43
2022-10-23T10:19:04.759Z,16.44
2022-10-23T10:20:15.527Z,16.47
2022-10-23T10:21:34.290Z,16.40
2022-10-23T10:22:41.509Z,16.41
2022-10-23T10:23:47.017Z,16.48
2022-10-23T10:24:57.365Z,16.57
2022-10-23T10:26:15.139Z,16.55
2022-10-23T10:27:39.137Z,16.63
2022-10-23T10:28:40.593Z,16.65
2022-10-23T10:29:54.319Z,16.70
2022-10-23T10:31:17.628Z,16.74
2022-10-23T10:32:19.088Z,16.75
2022-10-23T10:33:20.528Z,16.70
2022-10-23T10:34:50.881Z,16.65
2022-10-23T10:36:02.405Z,16.65
2022-10-23T10:37:19.167Z,16.69
2022-10-23T10:38:34.286Z,16.72
2022-10-23T10:40:11.425Z,16.78
2022-10-23T10:41:25.083Z,16.81
2022-10-23T10:42:28.994Z,16.85
2022-10-23T10:43:38.691Z,16.90
2022-10-23T10:44:43.152Z,16.94
2022-10-23T10:45:44.665Z,17.08
2022-10-23T10:46:46.138Z,17.19
2022-10-23T10:48:10.775Z,17.22
2022-10-23T10:49:35.693Z,17.20
2022-10-23T10:51:01.992Z,17.15
2022-10-23T10:52:21.444Z,17.19
2022-10-23T10:53:22.858Z,17.26
2022-10-23T10:54:24.356Z,17.24
2022-10-23T10:55:34.989Z,17.30
2022-10-23T10:56:39.382Z,17.35
2022-10-23T10:57:49.972Z,17.46
2022-10-23T10:58:53.790Z,17.60
2022-10-23T10:59:57.144Z,17.70
2022-10-23T11:01:01.287Z,17.68
2022-10-23T11:02:13.825Z,17.60
2022-10-23T11:03:31.310Z,17.59
2022-10-23T11:04:34.405Z,17.63
2022-10-23T11:05:42.376Z,17.74
2022-10-23T11:06:46.367Z,17.72
2022-10-23T11:07:55.661Z,17.70
2022-10-23T11:09:19.317Z,17.64
2022-10-23T11:10:21.534Z,17.63
2022-10-23T11:11:32.876Z,17.63
2022-10-23T11:12:34.486Z,17.60
2022-10-23T11:13:37.257Z,17.56
2022-10-23T11:14:38.805Z,17.45
2022-10-23T11:15:42.687Z,17.48
2022-10-23T11:16:57.364Z,17.47
2022-10-23T11:18:01.081Z,17.51
2022-10-23T11:19:02.556Z,17.53
2022-10-23T11:20:16.772Z,17.50
2022-10-23T11:21:30.460Z,17.60
2022-10-23T11:22:58.365Z,17.66
2022-10-23T11:25:24.874Z,17.64
2022-10-23T11:26:39.819Z,17.63
2022-10-23T11:27:47.023Z,17.69
2022-10-23T11:29:24.122Z,17.80
2022-10-23T11:30:25.565Z,17.83
2022-10-23T11:31:30.043Z,17.78
2022-10-23T11:32:31.524Z,17.79
2022-10-23T11:33:46.986Z,17.84
2022-10-23T11:34:48.398Z,17.89
2022-10-23T11:36:08.638Z,17.91
2022-10-23T11:37:10.161Z,17.95
2022-10-23T11:38:19.253Z,17.98
2022-10-23T11:39:25.964Z,18.07
2022-10-23T11:40:29.881Z,18.16
2022-10-23T11:41:31.472Z,18.18
2022-10-23T11:42:34.626Z,18.15
2022-10-23T11:43:52.785Z,18.05
2022-10-23T11:44:54.262Z,17.95
2022-10-23T11:45:55.897Z,17.94
2022-10-23T11:47:04.315Z,17.81
2022-10-23T11:48:26.006Z,17.68
2022-10-23T11:49:27.522Z,17.75
2022-10-23T11:50:29.043Z,17.79
2022-10-23T11:51:37.845Z,17.86
2022-10-23T11:52:50.346Z,17.86
2022-10-23T11:53:52.455Z,17.98
2022-10-23T11:55:12.657Z,18.08
2022-10-23T11:56:14.070Z,18.06
2022-10-23T11:57:16.219Z,18.01
2022-10-23T11:58:37.903Z,17.89
2022-10-23T11:59:51.973Z,17.85
2022-10-23T12:00:56.009Z,17.88
2022-10-23T12:02:02.013Z,17.91
2022-10-23T12:03:04.670Z,17.85
2022-10-23T12:04:15.220Z,17.92
2022-10-23T12:05:33.731Z,17.90
2022-10-23T12:06:42.908Z,17.81
2022-10-23T12:07:45.866Z,17.75
2022-10-23T12:08:50.158Z,17.73
2022-10-23T12:09:54.286Z,17.78
2022-10-23T12:10:55.771Z,17.79
2022-10-23T12:12:03.252Z,17.77
2022-10-23T12:13:06.199Z,17.71
2022-10-23T12:14:26.200Z,17.73
2022-10-23T12:15:28.193Z,17.71
2022-10-23T12:16:36.376Z,17.69
2022-10-23T12:17:44.693Z,17.61
2022-10-23T12:18:53.850Z,17.49
2022-10-23T12:20:16.172Z,17.48
2022-10-23T12:21:22.462Z,17.48
2022-10-23T12:22:27.782Z,17.41
2022-10-23T12:23:29.250Z,17.40
2022-10-23T12:24:48.457Z,17.43
2022-10-23T12:26:08.691Z,17.46
2022-10-23T12:27:16.569Z,17.45
2022-10-23T12:28:24.213Z,17.40
2022-10-23T12:29:34.804Z,17.41
2022-10-23T12:30:45.705Z,17.47
2022-10-23T12:32:05.915Z,17.44
2022-10-23T12:33:13.231Z,17.41
2022-10-23T12:34:14.657Z,17.39
2022-10-23T12:35:31.260Z,17.41
2022-10-23T12:36:51.666Z,17.30
2022-10-23T12:38:11.779Z,17.27
2022-10-23T12:39:28.113Z,17.25
2022-10-23T12:40:29.592Z,17.09
2022-10-23T12:41:32.373Z,17.04
2022-10-23T12:42:33.985Z,17.04
2022-10-23T12:43:37.081Z,17.07
2022-10-23T12:44:38.528Z,17.06
2022-10-23T12:45:40.711Z,16.99
2022-10-23T12:46:46.237Z,16.98
2022-10-23T12:47:48.539Z,16.99
2022-10-23T12:48:51.192Z,17.02
2022-10-23T12:49:52.680Z,17.11
2022-10-23T12:50:55.028Z,17.16
2022-10-23T12:51:56.648Z,17.17
2022-10-23T12:52:59.736Z,17.19
2022-10-23T12:54:02.109Z,17.19
2022-10-23T12:55:11.847Z,17.12
2022-10-23T12:56:14.118Z,17.02
2022-10-23T12:57:21.321Z,16.98
2022-10-23T12:58:24.388Z,16.99
2022-10-23T12:59:36.266Z,16.98
2022-10-23T13:00:37.735Z,17.00
2022-10-23T13:01:41.605Z,16.92
2022-10-23T13:02:45.060Z,16.87
2022-10-23T13:03:46.641Z,16.88
2022-10-23T13:04:49.677Z,16.86
2022-10-23T13:05:52.340Z,16.79
2022-10-23T13:06:55.648Z,16.78
2022-10-23T13:07:58.350Z,16.76
2022-10-23T13:09:22.077Z,16.70
2022-10-23T13:10:42.323Z,16.68
2022-10-23T13:11:44.895Z,16.75
2022-10-23T13:12:53.696Z,16.78
2022-10-23T13:13:55.181Z,16.75
2022-10-23T13:14:58.379Z,16.69
2022-10-23T13:15:59.867Z,16.75
2022-10-23T13:17:05.484Z,16.80
2022-10-23T13:18:07.850Z,16.82
2022-10-23T13:19:22.396Z,16.79
2022-10-23T13:20:27.966Z,16.76
2022-10-23T13:21:30.027Z,16.75
2022-10-23T13:22:31.560Z,16.77
2022-10-23T13:23:34.033Z,16.86
2022-10-23T13:24:35.521Z,16.91
2022-10-23T13:25:38.485Z,16.91
2022-10-23T13:26:41.273Z,16.88
2022-10-23T13:27:43.151Z,16.91
2022-10-23T13:28:45.520Z,16.90
2022-10-23T13:29:47.014Z,16.91
2022-10-23T13:31:00.491Z,16.92
2022-10-23T13:32:11.842Z,16.91
2022-10-23T13:33:26.788Z,16.97
2022-10-23T13:34:29.372Z,16.99
2022-10-23T13:35:31.804Z,17.02
2022-10-23T13:36:36.655Z,17.01
2022-10-23T13:37:39.411Z,16.93
2022-10-23T13:38:41.993Z,16.94
2022-10-23T13:39:44.662Z,16.99
2022-10-23T13:40:55.308Z,17.00
2022-10-23T13:41:59.827Z,17.02
2022-10-23T13:43:01.364Z,17.03
2022-10-23T13:44:02.905Z,17.05
2022-10-23T13:45:09.868Z,17.13
2022-10-23T13:46:15.235Z,17.16
2022-10-23T13:47:16.773Z,17.19
2022-10-23T13:48:19.469Z,17.24
2022-10-23T13:49:20.957Z,17.20
2022-10-23T13:50:23.746Z,17.18
2022-10-23T13:51:26.908Z,17.13
2022-10-23T13:52:28.791Z,16.97
2022-10-23T13:53:30.232Z,16.95
2022-10-23T13:54:31.770Z,16.91
2022-10-23T13:55:33.253Z,16.79
2022-10-23T13:56:34.689Z,16.75
2022-10-23T13:57:36.157Z,16.72
2022-10-23T13:58:37.670Z,16.65
2022-10-23T13:59:39.214Z,16.61
2022-10-23T14:00:40.822Z,16.67
2022-10-23T14:01:43.033Z,16.67
2022-10-23T14:02:45.051Z,16.63
2022-10-23T14:03:46.577Z,16.66
2022-10-23T14:04:48.861Z,16.63
2022-10-23T14:05:50.812Z,16.60
2022-10-23T14:06:52.259Z,16.57
2022-10-23T14:07:53.721Z,16.50
2022-10-23T14:08:55.216Z,16.47
2022-10-23T14:09:56.673Z,16.41
2022-10-23T14:10:58.148Z,16.37
2022-10-23T14:11:59.682Z,16.36
2022-10-23T14:13:01.123Z,16.32
2022-10-23T14:14:02.579Z,16.20
2022-10-23T14:15:04.286Z,16.20
2022-10-23T14:16:06.109Z,16.18
2022-10-23T14:17:07.573Z,16.18
2022-10-23T14:18:09.118Z,16.11
2022-10-23T14:19:11.002Z,16.10
2022-10-23T14:20:12.446Z,16.12
2022-10-23T14:21:14.917Z,16.15
2022-10-23T14:22:16.401Z,16.20
2022-10-23T14:23:17.850Z,16.19
2022-10-23T14:24:19.298Z,16.15
2022-10-23T14:25:20.758Z,16.12
2022-10-23T14:26:23.673Z,16.12
2022-10-23T14:27:25.187Z,16.15
2022-10-23T14:28:26.611Z,16.17
2022-10-23T14:29:28.241Z,16.16
2022-10-23T14:30:29.736Z,16.14
2022-10-23T14:31:31.190Z,16.19
2022-10-23T14:32:32.681Z,16.20